sensor_id;sensor_type;location;lat;lon;timestamp;temperature;humidity
4295;DHT22;2161;53.634;10.100;2023-04-15T00:00:13;9.80;99.90
4295;DHT22;2161;53.634;10.100;2023-04-15T00:02:40;9.90;99.90
4295;DHT22;2161;53.634;10.100;2023-04-15T00:05:06;10.00;99.90
4295;DHT22;2161;53.634;10.100;2023-04-15T00:07:32;9.90;99.90
4295;DHT22;2161;53.634;10.100;2023-04-15T00:09:58;9.90;99.90
4295;DHT22;2161;53.634;10.100;2023-04-15T00:12:24;9.50;99.90
4295;DHT22;2161;53.634;10.100;2023-04-15T00:14:50;9.50;99.90
4295;DHT22;2161;53.634;10.100;2023-04-15T00:17:16;9.80;99.90
4295;DHT22;2161;53.634;10.100;2023-04-15T00:19:42;9.80;99.90
4295;DHT22;2161;53.634;10.100;2023-04-15T00:22:09;9.90;99.90
4295;DHT22;2161;53.634;10.100;2023-04-15T00:24:34;10.10;99.90
4295;DHT22;2161;53.634;10.100;2023-04-15T00:27:00;9.80;99.90
4295;DHT22;2161;53.634;10.100;2023-04-15T00:29:25;9.60;99.90
4295;DHT22;2161;53.634;10.100;2023-04-15T00:31:51;9.50;99.90
4295;DHT22;2161;53.634;10.100;2023-04-15T00:34:16;9.60;99.90
4295;DHT22;2161;53.634;10.100;2023-04-15T00:36:43;9.60;99.90
4295;DHT22;2161;53.634;10.100;2023-04-15T00:39:08;9.70;99.90
4295;DHT22;2161;53.634;10.100;2023-04-15T00:41:34;9.70;99.90
4295;DHT22;2161;53.634;10.100;2023-04-15T00:44:04;9.40;99.90
4295;DHT22;2161;53.634;10.100;2023-04-15T00:46:30;9.50;99.90
4295;DHT22;2161;53.634;10.100;2023-04-15T00:48:56;10.00;99.90
4295;DHT22;2161;53.634;10.100;2023-04-15T00:51:21;9.80;99.90
4295;DHT22;2161;53.634;10.100;2023-04-15T00:53:47;9.90;99.90
4295;DHT22;2161;53.634;10.100;2023-04-15T00:56:13;9.80;99.90
4295;DHT22;2161;53.634;10.100;2023-04-15T00:58:38;9.50;99.90
4295;DHT22;2161;53.634;10.100;2023-04-15T01:01:04;9.60;99.90
4295;DHT22;2161;53.634;10.100;2023-04-15T01:03:30;9.60;99.90
4295;DHT22;2161;53.634;10.100;2023-04-15T01:05:55;9.50;99.90
4295;DHT22;2161;53.634;10.100;2023-04-15T01:08:30;9.50;99.90
4295;DHT22;2161;53.634;10.100;2023-04-15T01:10:57;9.60;99.90
4295;DHT22;2161;53.634;10.100;2023-04-15T01:13:23;9.50;99.90
4295;DHT22;2161;53.634;10.100;2023-04-15T01:15:50;9.50;99.90
4295;DHT22;2161;53.634;10.100;2023-04-15T01:18:17;9.60;99.90
4295;DHT22;2161;53.634;10.100;2023-04-15T01:20:43;9.80;99.90
4295;DHT22;2161;53.634;10.100;2023-04-15T01:23:09;9.80;99.90
4295;DHT22;2161;53.634;10.100;2023-04-15T01:25:34;9.90;99.90
4295;DHT22;2161;53.634;10.100;2023-04-15T01:28:00;9.90;99.90
4295;DHT22;2161;53.634;10.100;2023-04-15T01:30:26;9.90;99.90
4295;DHT22;2161;53.634;10.100;2023-04-15T01:32:52;9.80;99.90
4295;DHT22;2161;53.634;10.100;2023-04-15T01:35:18;9.90;99.90
4295;DHT22;2161;53.634;10.100;2023-04-15T01:37:44;9.80;99.90
4295;DHT22;2161;53.634;10.100;2023-04-15T01:40:10;9.80;99.90
4295;DHT22;2161;53.634;10.100;2023-04-15T01:42:36;9.90;99.90
4295;DHT22;2161;53.634;10.100;2023-04-15T01:45:02;9.90;99.90
4295;DHT22;2161;53.634;10.100;2023-04-15T01:47:28;9.90;99.90
4295;DHT22;2161;53.634;10.100;2023-04-15T01:49:53;9.90;99.90
4295;DHT22;2161;53.634;10.100;2023-04-15T01:52:19;10.00;99.90
4295;DHT22;2161;53.634;10.100;2023-04-15T01:54:45;9.90;99.90
4295;DHT22;2161;53.634;10.100;2023-04-15T01:57:11;9.70;99.90
4295;DHT22;2161;53.634;10.100;2023-04-15T01:59:37;9.70;99.90
4295;DHT22;2161;53.634;10.100;2023-04-15T02:02:02;9.80;99.90
4295;DHT22;2161;53.634;10.100;2023-04-15T02:04:28;9.70;99.90
4295;DHT22;2161;53.634;10.100;2023-04-15T02:06:54;9.70;99.90
4295;DHT22;2161;53.634;10.100;2023-04-15T02:09:19;9.70;99.90
4295;DHT22;2161;53.634;10.100;2023-04-15T02:11:45;9.30;99.90
4295;DHT22;2161;53.634;10.100;2023-04-15T02:14:10;9.60;99.90
4295;DHT22;2161;53.634;10.100;2023-04-15T02:16:36;9.70;99.90
4295;DHT22;2161;53.634;10.100;2023-04-15T02:19:02;9.50;99.90
4295;DHT22;2161;53.634;10.100;2023-04-15T02:21:29;9.50;99.90
4295;DHT22;2161;53.634;10.100;2023-04-15T02:23:54;9.50;99.90
4295;DHT22;2161;53.634;10.100;2023-04-15T02:26:20;9.50;99.90
4295;DHT22;2161;53.634;10.100;2023-04-15T02:28:47;9.60;99.90
4295;DHT22;2161;53.634;10.100;2023-04-15T02:31:13;9.70;99.90
4295;DHT22;2161;53.634;10.100;2023-04-15T02:33:38;9.50;99.90
4295;DHT22;2161;53.634;10.100;2023-04-15T02:36:04;9.80;99.90
4295;DHT22;2161;53.634;10.100;2023-04-15T02:38:30;9.90;99.90
4295;DHT22;2161;53.634;10.100;2023-04-15T02:40:56;9.90;99.90
4295;DHT22;2161;53.634;10.100;2023-04-15T02:43:22;9.90;99.90
4295;DHT22;2161;53.634;10.100;2023-04-15T02:45:48;9.90;99.90
4295;DHT22;2161;53.634;10.100;2023-04-15T02:48:13;9.90;99.90
4295;DHT22;2161;53.634;10.100;2023-04-15T02:50:41;9.90;99.90
4295;DHT22;2161;53.634;10.100;2023-04-15T02:53:06;9.90;99.90
4295;DHT22;2161;53.634;10.100;2023-04-15T02:55:32;9.90;99.90
4295;DHT22;2161;53.634;10.100;2023-04-15T02:57:57;10.00;99.90
4295;DHT22;2161;53.634;10.100;2023-04-15T03:00:25;9.70;99.90
4295;DHT22;2161;53.634;10.100;2023-04-15T03:02:57;9.90;99.90
4295;DHT22;2161;53.634;10.100;2023-04-15T03:05:23;9.70;99.90
4295;DHT22;2161;53.634;10.100;2023-04-15T03:07:53;9.70;99.90
4295;DHT22;2161;53.634;10.100;2023-04-15T03:10:18;9.70;99.90
4295;DHT22;2161;53.634;10.100;2023-04-15T03:12:44;9.70;99.90
4295;DHT22;2161;53.634;10.100;2023-04-15T03:15:10;9.80;99.90
4295;DHT22;2161;53.634;10.100;2023-04-15T03:17:35;9.90;99.90
4295;DHT22;2161;53.634;10.100;2023-04-15T03:20:02;10.00;99.90
4295;DHT22;2161;53.634;10.100;2023-04-15T03:22:31;10.00;99.90
4295;DHT22;2161;53.634;10.100;2023-04-15T03:24:56;9.80;99.90
4295;DHT22;2161;53.634;10.100;2023-04-15T03:27:22;9.70;99.90
4295;DHT22;2161;53.634;10.100;2023-04-15T03:29:48;9.70;99.90
4295;DHT22;2161;53.634;10.100;2023-04-15T03:32:13;9.70;99.90
4295;DHT22;2161;53.634;10.100;2023-04-15T03:34:40;9.80;99.90
4295;DHT22;2161;53.634;10.100;2023-04-15T03:37:06;9.80;99.90
4295;DHT22;2161;53.634;10.100;2023-04-15T03:39:32;9.90;99.90
4295;DHT22;2161;53.634;10.100;2023-04-15T03:41:57;9.80;99.90
4295;DHT22;2161;53.634;10.100;2023-04-15T03:44:25;9.60;99.90
4295;DHT22;2161;53.634;10.100;2023-04-15T03:46:50;9.80;99.90
4295;DHT22;2161;53.634;10.100;2023-04-15T03:49:16;9.80;99.90
4295;DHT22;2161;53.634;10.100;2023-04-15T03:51:43;9.90;99.90
4295;DHT22;2161;53.634;10.100;2023-04-15T03:54:09;9.90;99.90
4295;DHT22;2161;53.634;10.100;2023-04-15T03:56:34;10.00;99.90
4295;DHT22;2161;53.634;10.100;2023-04-15T03:59:00;10.00;99.90
4295;DHT22;2161;53.634;10.100;2023-04-15T04:01:25;9.80;99.90
4295;DHT22;2161;53.634;10.100;2023-04-15T04:03:51;9.90;99.90
4295;DHT22;2161;53.634;10.100;2023-04-15T04:06:16;9.70;99.90
4295;DHT22;2161;53.634;10.100;2023-04-15T04:08:42;9.80;99.90
4295;DHT22;2161;53.634;10.100;2023-04-15T04:11:08;9.90;99.90
4295;DHT22;2161;53.634;10.100;2023-04-15T04:13:33;9.90;99.90
4295;DHT22;2161;53.634;10.100;2023-04-15T04:15:59;9.90;99.90
4295;DHT22;2161;53.634;10.100;2023-04-15T04:18:25;9.80;99.90
4295;DHT22;2161;53.634;10.100;2023-04-15T04:20:50;9.80;99.90
4295;DHT22;2161;53.634;10.100;2023-04-15T04:23:16;10.00;99.90
4295;DHT22;2161;53.634;10.100;2023-04-15T04:25:41;9.90;99.90
4295;DHT22;2161;53.634;10.100;2023-04-15T04:28:07;10.00;99.90
4295;DHT22;2161;53.634;10.100;2023-04-15T04:30:34;9.90;99.90
4295;DHT22;2161;53.634;10.100;2023-04-15T04:33:00;9.90;99.90
4295;DHT22;2161;53.634;10.100;2023-04-15T04:35:26;9.70;99.90
4295;DHT22;2161;53.634;10.100;2023-04-15T04:37:51;9.90;99.90
4295;DHT22;2161;53.634;10.100;2023-04-15T04:40:18;9.80;99.90
4295;DHT22;2161;53.634;10.100;2023-04-15T04:42:43;9.90;99.90
4295;DHT22;2161;53.634;10.100;2023-04-15T04:45:09;9.80;99.90
4295;DHT22;2161;53.634;10.100;2023-04-15T04:47:35;9.80;99.90
4295;DHT22;2161;53.634;10.100;2023-04-15T04:50:00;9.60;99.90
4295;DHT22;2161;53.634;10.100;2023-04-15T04:52:26;9.70;99.90
4295;DHT22;2161;53.634;10.100;2023-04-15T04:54:51;9.70;99.90
4295;DHT22;2161;53.634;10.100;2023-04-15T04:57:17;9.70;99.90
4295;DHT22;2161;53.634;10.100;2023-04-15T04:59:42;9.70;99.90
4295;DHT22;2161;53.634;10.100;2023-04-15T05:02:08;9.70;99.90
4295;DHT22;2161;53.634;10.100;2023-04-15T05:04:33;9.60;99.90
4295;DHT22;2161;53.634;10.100;2023-04-15T05:06:59;9.70;99.90
4295;DHT22;2161;53.634;10.100;2023-04-15T05:09:27;9.80;99.90
4295;DHT22;2161;53.634;10.100;2023-04-15T05:11:56;9.70;99.90
4295;DHT22;2161;53.634;10.100;2023-04-15T05:14:22;9.60;99.90
4295;DHT22;2161;53.634;10.100;2023-04-15T05:16:47;9.70;99.90
4295;DHT22;2161;53.634;10.100;2023-04-15T05:19:13;9.80;99.90
4295;DHT22;2161;53.634;10.100;2023-04-15T05:21:38;9.90;99.90
4295;DHT22;2161;53.634;10.100;2023-04-15T05:24:04;9.90;99.90
4295;DHT22;2161;53.634;10.100;2023-04-15T05:26:30;9.90;99.90
4295;DHT22;2161;53.634;10.100;2023-04-15T05:28:56;9.80;99.90
4295;DHT22;2161;53.634;10.100;2023-04-15T05:31:22;9.80;99.90
4295;DHT22;2161;53.634;10.100;2023-04-15T05:33:47;9.80;99.90
4295;DHT22;2161;53.634;10.100;2023-04-15T05:36:13;9.80;99.90
4295;DHT22;2161;53.634;10.100;2023-04-15T05:38:38;9.90;99.90
4295;DHT22;2161;53.634;10.100;2023-04-15T05:41:04;9.90;99.90
4295;DHT22;2161;53.634;10.100;2023-04-15T05:43:30;10.00;99.90
4295;DHT22;2161;53.634;10.100;2023-04-15T05:45:55;9.90;99.90
4295;DHT22;2161;53.634;10.100;2023-04-15T05:48:21;10.10;99.90
4295;DHT22;2161;53.634;10.100;2023-04-15T05:50:46;10.10;99.90
4295;DHT22;2161;53.634;10.100;2023-04-15T05:53:12;10.00;99.90
4295;DHT22;2161;53.634;10.100;2023-04-15T05:55:38;9.90;99.90
4295;DHT22;2161;53.634;10.100;2023-04-15T05:58:03;9.70;99.90
4295;DHT22;2161;53.634;10.100;2023-04-15T06:00:28;9.50;99.90
4295;DHT22;2161;53.634;10.100;2023-04-15T06:02:55;10.20;99.90
4295;DHT22;2161;53.634;10.100;2023-04-15T06:05:22;9.90;99.90
4295;DHT22;2161;53.634;10.100;2023-04-15T06:07:48;10.10;99.90
4295;DHT22;2161;53.634;10.100;2023-04-15T06:10:14;9.90;99.90
4295;DHT22;2161;53.634;10.100;2023-04-15T06:12:40;10.00;99.90
4295;DHT22;2161;53.634;10.100;2023-04-15T06:15:06;9.80;99.90
4295;DHT22;2161;53.634;10.100;2023-04-15T06:17:34;9.90;99.90
4295;DHT22;2161;53.634;10.100;2023-04-15T06:19:59;10.00;99.90
4295;DHT22;2161;53.634;10.100;2023-04-15T06:22:25;9.90;99.90
4295;DHT22;2161;53.634;10.100;2023-04-15T06:24:50;9.90;99.90
4295;DHT22;2161;53.634;10.100;2023-04-15T06:27:16;9.90;99.90
4295;DHT22;2161;53.634;10.100;2023-04-15T06:29:42;9.70;99.90
4295;DHT22;2161;53.634;10.100;2023-04-15T06:32:08;9.80;99.90
4295;DHT22;2161;53.634;10.100;2023-04-15T06:34:33;9.90;99.90
4295;DHT22;2161;53.634;10.100;2023-04-15T06:36:59;9.80;99.90
4295;DHT22;2161;53.634;10.100;2023-04-15T06:39:25;9.80;99.90
4295;DHT22;2161;53.634;10.100;2023-04-15T06:41:51;9.70;99.90
4295;DHT22;2161;53.634;10.100;2023-04-15T06:44:17;9.80;99.90
4295;DHT22;2161;53.634;10.100;2023-04-15T06:46:43;9.60;99.90
4295;DHT22;2161;53.634;10.100;2023-04-15T06:49:09;9.50;99.90
4295;DHT22;2161;53.634;10.100;2023-04-15T06:51:35;9.60;99.90
4295;DHT22;2161;53.634;10.100;2023-04-15T06:54:01;9.60;99.90
4295;DHT22;2161;53.634;10.100;2023-04-15T06:56:33;9.70;99.90
4295;DHT22;2161;53.634;10.100;2023-04-15T06:58:58;9.80;99.90
4295;DHT22;2161;53.634;10.100;2023-04-15T07:01:24;9.90;99.90
4295;DHT22;2161;53.634;10.100;2023-04-15T07:03:50;9.90;99.90
4295;DHT22;2161;53.634;10.100;2023-04-15T07:06:15;9.80;99.90
4295;DHT22;2161;53.634;10.100;2023-04-15T07:08:41;9.70;99.90
4295;DHT22;2161;53.634;10.100;2023-04-15T07:11:07;9.80;99.90
4295;DHT22;2161;53.634;10.100;2023-04-15T07:13:33;9.90;99.90
4295;DHT22;2161;53.634;10.100;2023-04-15T07:15:58;9.80;99.90
4295;DHT22;2161;53.634;10.100;2023-04-15T07:18:24;9.90;99.90
4295;DHT22;2161;53.634;10.100;2023-04-15T07:20:49;9.90;99.90
4295;DHT22;2161;53.634;10.100;2023-04-15T07:23:15;9.90;99.90
4295;DHT22;2161;53.634;10.100;2023-04-15T07:25:41;10.00;99.90
4295;DHT22;2161;53.634;10.100;2023-04-15T07:28:07;10.00;99.90
4295;DHT22;2161;53.634;10.100;2023-04-15T07:30:32;10.00;99.90
4295;DHT22;2161;53.634;10.100;2023-04-15T07:32:58;9.90;99.90
4295;DHT22;2161;53.634;10.100;2023-04-15T07:35:24;10.00;99.90
4295;DHT22;2161;53.634;10.100;2023-04-15T07:37:50;9.80;99.90
4295;DHT22;2161;53.634;10.100;2023-04-15T07:40:16;9.90;99.90
4295;DHT22;2161;53.634;10.100;2023-04-15T07:42:42;9.60;99.90
4295;DHT22;2161;53.634;10.100;2023-04-15T07:45:08;9.90;99.90
4295;DHT22;2161;53.634;10.100;2023-04-15T07:47:34;9.90;99.90
4295;DHT22;2161;53.634;10.100;2023-04-15T07:50:00;9.90;99.90
4295;DHT22;2161;53.634;10.100;2023-04-15T07:52:26;9.90;99.90
4295;DHT22;2161;53.634;10.100;2023-04-15T07:54:52;9.80;99.90
4295;DHT22;2161;53.634;10.100;2023-04-15T07:57:17;9.90;99.90
4295;DHT22;2161;53.634;10.100;2023-04-15T07:59:43;10.10;99.90
4295;DHT22;2161;53.634;10.100;2023-04-15T08:02:10;9.90;99.90
4295;DHT22;2161;53.634;10.100;2023-04-15T08:04:35;10.00;99.90
4295;DHT22;2161;53.634;10.100;2023-04-15T08:07:02;10.00;99.90
4295;DHT22;2161;53.634;10.100;2023-04-15T08:09:28;9.90;99.90
4295;DHT22;2161;53.634;10.100;2023-04-15T08:11:53;9.90;99.90
4295;DHT22;2161;53.634;10.100;2023-04-15T08:14:19;9.90;99.90
4295;DHT22;2161;53.634;10.100;2023-04-15T08:16:45;10.10;99.90
4295;DHT22;2161;53.634;10.100;2023-04-15T08:19:10;10.10;99.90
4295;DHT22;2161;53.634;10.100;2023-04-15T08:21:36;10.10;99.90
4295;DHT22;2161;53.634;10.100;2023-04-15T08:24:01;10.10;99.90
4295;DHT22;2161;53.634;10.100;2023-04-15T08:26:27;10.50;99.90
4295;DHT22;2161;53.634;10.100;2023-04-15T08:28:53;10.10;99.90
4295;DHT22;2161;53.634;10.100;2023-04-15T08:31:19;10.20;99.90
4295;DHT22;2161;53.634;10.100;2023-04-15T08:33:45;10.20;99.90
4295;DHT22;2161;53.634;10.100;2023-04-15T08:36:11;10.30;99.90
4295;DHT22;2161;53.634;10.100;2023-04-15T08:38:38;10.20;99.90
4295;DHT22;2161;53.634;10.100;2023-04-15T08:41:11;10.20;99.90
4295;DHT22;2161;53.634;10.100;2023-04-15T08:43:48;10.20;99.90
4295;DHT22;2161;53.634;10.100;2023-04-15T08:46:16;10.10;99.90
4295;DHT22;2161;53.634;10.100;2023-04-15T08:48:42;10.20;99.90
4295;DHT22;2161;53.634;10.100;2023-04-15T08:51:08;10.20;99.90
4295;DHT22;2161;53.634;10.100;2023-04-15T08:53:34;10.20;99.90
4295;DHT22;2161;53.634;10.100;2023-04-15T08:56:03;10.30;99.90
4295;DHT22;2161;53.634;10.100;2023-04-15T08:58:30;10.10;99.90
4295;DHT22;2161;53.634;10.100;2023-04-15T09:00:56;10.10;99.90
4295;DHT22;2161;53.634;10.100;2023-04-15T09:03:21;10.10;99.90
4295;DHT22;2161;53.634;10.100;2023-04-15T09:05:49;10.00;99.90
4295;DHT22;2161;53.634;10.100;2023-04-15T09:08:15;10.10;99.90
4295;DHT22;2161;53.634;10.100;2023-04-15T09:10:40;10.20;99.90
4295;DHT22;2161;53.634;10.100;2023-04-15T09:13:06;10.20;99.90
4295;DHT22;2161;53.634;10.100;2023-04-15T09:15:32;9.50;99.90
4295;DHT22;2161;53.634;10.100;2023-04-15T09:17:58;10.30;99.90
4295;DHT22;2161;53.634;10.100;2023-04-15T09:20:23;10.30;99.90
4295;DHT22;2161;53.634;10.100;2023-04-15T09:22:49;10.40;99.90
4295;DHT22;2161;53.634;10.100;2023-04-15T09:27:58;10.70;99.90
4295;DHT22;2161;53.634;10.100;2023-04-15T09:30:24;10.70;99.90
4295;DHT22;2161;53.634;10.100;2023-04-15T09:32:55;10.70;99.90
4295;DHT22;2161;53.634;10.100;2023-04-15T09:35:21;10.70;99.90
4295;DHT22;2161;53.634;10.100;2023-04-15T09:37:51;10.80;99.90
4295;DHT22;2161;53.634;10.100;2023-04-15T09:40:37;10.80;99.90
4295;DHT22;2161;53.634;10.100;2023-04-15T09:43:03;10.90;99.90
4295;DHT22;2161;53.634;10.100;2023-04-15T09:45:30;10.80;99.90
4295;DHT22;2161;53.634;10.100;2023-04-15T09:47:57;10.90;99.90
4295;DHT22;2161;53.634;10.100;2023-04-15T09:50:26;11.10;99.90
4295;DHT22;2161;53.634;10.100;2023-04-15T09:52:53;11.20;99.90
4295;DHT22;2161;53.634;10.100;2023-04-15T09:55:18;11.20;99.90
4295;DHT22;2161;53.634;10.100;2023-04-15T09:57:45;11.20;99.90
4295;DHT22;2161;53.634;10.100;2023-04-15T10:00:11;11.20;99.90
4295;DHT22;2161;53.634;10.100;2023-04-15T10:02:41;11.20;99.90
4295;DHT22;2161;53.634;10.100;2023-04-15T10:05:09;11.10;99.90
4295;DHT22;2161;53.634;10.100;2023-04-15T10:07:37;11.30;99.90
4295;DHT22;2161;53.634;10.100;2023-04-15T10:10:03;11.30;99.90
4295;DHT22;2161;53.634;10.100;2023-04-15T10:12:30;11.80;99.90
4295;DHT22;2161;53.634;10.100;2023-04-15T10:14:59;11.50;99.90
4295;DHT22;2161;53.634;10.100;2023-04-15T10:17:27;11.60;99.90
4295;DHT22;2161;53.634;10.100;2023-04-15T10:20:00;11.70;99.90
4295;DHT22;2161;53.634;10.100;2023-04-15T10:22:27;11.80;99.90
4295;DHT22;2161;53.634;10.100;2023-04-15T10:24:53;11.80;99.90
4295;DHT22;2161;53.634;10.100;2023-04-15T10:27:20;11.90;99.90
4295;DHT22;2161;53.634;10.100;2023-04-15T10:29:47;12.00;99.90
4295;DHT22;2161;53.634;10.100;2023-04-15T10:32:14;12.20;99.90
4295;DHT22;2161;53.634;10.100;2023-04-15T10:34:40;12.30;99.90
4295;DHT22;2161;53.634;10.100;2023-04-15T10:37:08;12.50;99.90
4295;DHT22;2161;53.634;10.100;2023-04-15T10:42:08;12.80;99.90
4295;DHT22;2161;53.634;10.100;2023-04-15T10:44:41;12.70;99.90
4295;DHT22;2161;53.634;10.100;2023-04-15T10:47:15;12.80;99.90
4295;DHT22;2161;53.634;10.100;2023-04-15T10:52:10;13.00;99.90
4295;DHT22;2161;53.634;10.100;2023-04-15T10:54:36;13.10;99.90
4295;DHT22;2161;53.634;10.100;2023-04-15T10:59:36;13.40;99.90
4295;DHT22;2161;53.634;10.100;2023-04-15T11:02:04;13.30;99.90
4295;DHT22;2161;53.634;10.100;2023-04-15T11:07:46;13.40;99.90
4295;DHT22;2161;53.634;10.100;2023-04-15T11:12:39;13.40;99.90
4295;DHT22;2161;53.634;10.100;2023-04-15T11:17:52;13.30;99.90
4295;DHT22;2161;53.634;10.100;2023-04-15T11:20:18;13.20;99.90
4295;DHT22;2161;53.634;10.100;2023-04-15T11:22:51;13.20;99.90
4295;DHT22;2161;53.634;10.100;2023-04-15T11:25:22;13.70;99.90
4295;DHT22;2161;53.634;10.100;2023-04-15T11:27:48;13.10;99.90
4295;DHT22;2161;53.634;10.100;2023-04-15T11:30:18;13.10;99.90
4295;DHT22;2161;53.634;10.100;2023-04-15T11:32:46;13.00;99.90
4295;DHT22;2161;53.634;10.100;2023-04-15T11:35:11;13.00;99.90
4295;DHT22;2161;53.634;10.100;2023-04-15T11:37:37;12.90;99.90
4295;DHT22;2161;53.634;10.100;2023-04-15T11:40:02;12.90;99.90
4295;DHT22;2161;53.634;10.100;2023-04-15T11:42:28;13.10;99.90
4295;DHT22;2161;53.634;10.100;2023-04-15T11:45:14;13.20;99.90
4295;DHT22;2161;53.634;10.100;2023-04-15T11:47:41;13.30;99.90
4295;DHT22;2161;53.634;10.100;2023-04-15T11:50:17;13.40;99.90
4295;DHT22;2161;53.634;10.100;2023-04-15T11:53:00;13.40;99.90
4295;DHT22;2161;53.634;10.100;2023-04-15T11:55:26;13.50;99.90
4295;DHT22;2161;53.634;10.100;2023-04-15T12:00:33;13.30;99.90
4295;DHT22;2161;53.634;10.100;2023-04-15T12:06:09;13.30;99.90
4295;DHT22;2161;53.634;10.100;2023-04-15T12:11:14;13.10;99.90
4295;DHT22;2161;53.634;10.100;2023-04-15T12:13:46;13.00;99.90
4295;DHT22;2161;53.634;10.100;2023-04-15T12:16:15;13.00;99.90
4295;DHT22;2161;53.634;10.100;2023-04-15T12:18:40;12.90;99.90
4295;DHT22;2161;53.634;10.100;2023-04-15T12:21:10;12.80;99.90
4295;DHT22;2161;53.634;10.100;2023-04-15T12:23:37;12.90;99.90
4295;DHT22;2161;53.634;10.100;2023-04-15T12:26:06;12.90;99.90
4295;DHT22;2161;53.634;10.100;2023-04-15T12:28:35;12.80;99.90
4295;DHT22;2161;53.634;10.100;2023-04-15T12:31:10;12.90;99.90
4295;DHT22;2161;53.634;10.100;2023-04-15T12:33:37;12.90;99.90
4295;DHT22;2161;53.634;10.100;2023-04-15T12:36:03;12.90;99.90
4295;DHT22;2161;53.634;10.100;2023-04-15T12:38:29;12.90;99.90
4295;DHT22;2161;53.634;10.100;2023-04-15T12:40:57;12.80;99.90
4295;DHT22;2161;53.634;10.100;2023-04-15T12:43:22;12.90;99.90
4295;DHT22;2161;53.634;10.100;2023-04-15T12:45:48;12.90;99.90
4295;DHT22;2161;53.634;10.100;2023-04-15T12:48:13;13.00;99.90
4295;DHT22;2161;53.634;10.100;2023-04-15T12:50:39;13.00;99.90
4295;DHT22;2161;53.634;10.100;2023-04-15T12:53:05;13.00;99.90
4295;DHT22;2161;53.634;10.100;2023-04-15T12:55:30;12.90;99.90
4295;DHT22;2161;53.634;10.100;2023-04-15T12:57:56;13.00;99.90
4295;DHT22;2161;53.634;10.100;2023-04-15T13:00:22;13.00;99.90
4295;DHT22;2161;53.634;10.100;2023-04-15T13:02:48;13.00;99.90
4295;DHT22;2161;53.634;10.100;2023-04-15T13:05:13;13.00;99.90
4295;DHT22;2161;53.634;10.100;2023-04-15T13:07:40;12.90;99.90
4295;DHT22;2161;53.634;10.100;2023-04-15T13:10:06;13.00;99.90
4295;DHT22;2161;53.634;10.100;2023-04-15T13:12:32;13.00;99.90
4295;DHT22;2161;53.634;10.100;2023-04-15T13:15:01;13.10;99.90
4295;DHT22;2161;53.634;10.100;2023-04-15T13:17:28;13.10;99.90
4295;DHT22;2161;53.634;10.100;2023-04-15T13:19:53;13.10;99.90
4295;DHT22;2161;53.634;10.100;2023-04-15T13:22:19;12.60;99.90
4295;DHT22;2161;53.634;10.100;2023-04-15T13:24:45;13.20;99.90
4295;DHT22;2161;53.634;10.100;2023-04-15T13:27:11;13.20;99.90
4295;DHT22;2161;53.634;10.100;2023-04-15T13:29:37;13.30;99.90
4295;DHT22;2161;53.634;10.100;2023-04-15T13:32:05;13.30;99.90
4295;DHT22;2161;53.634;10.100;2023-04-15T13:34:30;13.40;99.90
4295;DHT22;2161;53.634;10.100;2023-04-15T13:36:56;13.60;99.90
4295;DHT22;2161;53.634;10.100;2023-04-15T13:39:21;13.90;99.90
4295;DHT22;2161;53.634;10.100;2023-04-15T13:41:47;13.90;99.90
4295;DHT22;2161;53.634;10.100;2023-04-15T13:44:13;13.90;99.90
4295;DHT22;2161;53.634;10.100;2023-04-15T13:46:39;13.90;99.90
4295;DHT22;2161;53.634;10.100;2023-04-15T13:49:06;14.20;99.90
4295;DHT22;2161;53.634;10.100;2023-04-15T13:51:31;14.40;99.90
4295;DHT22;2161;53.634;10.100;2023-04-15T13:53:57;14.60;99.90
4295;DHT22;2161;53.634;10.100;2023-04-15T13:56:23;14.80;99.90
4295;DHT22;2161;53.634;10.100;2023-04-15T13:58:48;14.90;99.90
4295;DHT22;2161;53.634;10.100;2023-04-15T14:01:14;15.00;99.90
4295;DHT22;2161;53.634;10.100;2023-04-15T14:03:39;14.90;99.90
4295;DHT22;2161;53.634;10.100;2023-04-15T14:06:05;15.00;99.90
4295;DHT22;2161;53.634;10.100;2023-04-15T14:08:31;15.10;99.90
4295;DHT22;2161;53.634;10.100;2023-04-15T14:10:56;15.10;99.90
4295;DHT22;2161;53.634;10.100;2023-04-15T14:13:22;15.20;99.90
4295;DHT22;2161;53.634;10.100;2023-04-15T14:15:47;15.10;99.90
4295;DHT22;2161;53.634;10.100;2023-04-15T14:18:13;15.10;99.90
4295;DHT22;2161;53.634;10.100;2023-04-15T14:20:38;15.10;99.90
4295;DHT22;2161;53.634;10.100;2023-04-15T14:23:04;15.20;99.90
4295;DHT22;2161;53.634;10.100;2023-04-15T14:25:30;15.20;99.90
4295;DHT22;2161;53.634;10.100;2023-04-15T14:27:55;15.00;99.90
4295;DHT22;2161;53.634;10.100;2023-04-15T14:30:21;15.10;99.90
4295;DHT22;2161;53.634;10.100;2023-04-15T14:32:46;15.00;99.90
4295;DHT22;2161;53.634;10.100;2023-04-15T14:35:12;14.90;99.90
4295;DHT22;2161;53.634;10.100;2023-04-15T14:37:37;14.80;99.90
4295;DHT22;2161;53.634;10.100;2023-04-15T14:40:03;14.70;99.90
4295;DHT22;2161;53.634;10.100;2023-04-15T14:42:29;14.50;99.90
4295;DHT22;2161;53.634;10.100;2023-04-15T14:44:54;14.50;99.90
4295;DHT22;2161;53.634;10.100;2023-04-15T14:47:20;14.20;99.90
4295;DHT22;2161;53.634;10.100;2023-04-15T14:49:46;14.20;99.90
4295;DHT22;2161;53.634;10.100;2023-04-15T14:52:11;14.20;99.90
4295;DHT22;2161;53.634;10.100;2023-04-15T14:54:37;14.20;99.90
4295;DHT22;2161;53.634;10.100;2023-04-15T14:57:02;14.00;99.90
4295;DHT22;2161;53.634;10.100;2023-04-15T14:59:28;14.10;99.90
4295;DHT22;2161;53.634;10.100;2023-04-15T15:01:53;14.00;99.90
4295;DHT22;2161;53.634;10.100;2023-04-15T15:04:19;14.10;99.90
4295;DHT22;2161;53.634;10.100;2023-04-15T15:06:44;14.10;99.90
4295;DHT22;2161;53.634;10.100;2023-04-15T15:09:10;14.10;99.90
4295;DHT22;2161;53.634;10.100;2023-04-15T15:11:35;14.10;99.90
4295;DHT22;2161;53.634;10.100;2023-04-15T15:14:01;14.10;99.90
4295;DHT22;2161;53.634;10.100;2023-04-15T15:16:27;14.00;99.90
4295;DHT22;2161;53.634;10.100;2023-04-15T15:18:54;13.90;99.90
4295;DHT22;2161;53.634;10.100;2023-04-15T15:21:19;14.00;99.90
4295;DHT22;2161;53.634;10.100;2023-04-15T15:23:45;13.80;99.90
4295;DHT22;2161;53.634;10.100;2023-04-15T15:26:11;13.80;99.90
4295;DHT22;2161;53.634;10.100;2023-04-15T15:28:36;13.80;99.90
4295;DHT22;2161;53.634;10.100;2023-04-15T15:31:02;13.70;99.90
4295;DHT22;2161;53.634;10.100;2023-04-15T15:33:28;13.60;99.90
4295;DHT22;2161;53.634;10.100;2023-04-15T15:35:54;13.50;99.90
4295;DHT22;2161;53.634;10.100;2023-04-15T15:38:19;13.50;99.90
4295;DHT22;2161;53.634;10.100;2023-04-15T15:40:46;13.60;99.90
4295;DHT22;2161;53.634;10.100;2023-04-15T15:43:12;13.50;99.90
4295;DHT22;2161;53.634;10.100;2023-04-15T15:45:37;13.60;99.90
4295;DHT22;2161;53.634;10.100;2023-04-15T15:48:04;13.60;99.90
4295;DHT22;2161;53.634;10.100;2023-04-15T15:50:30;13.60;99.90
4295;DHT22;2161;53.634;10.100;2023-04-15T15:52:56;13.50;99.90
4295;DHT22;2161;53.634;10.100;2023-04-15T15:55:22;13.30;99.90
4295;DHT22;2161;53.634;10.100;2023-04-15T15:57:50;13.40;99.90
4295;DHT22;2161;53.634;10.100;2023-04-15T16:00:16;13.30;99.90
4295;DHT22;2161;53.634;10.100;2023-04-15T16:02:42;13.20;99.90
4295;DHT22;2161;53.634;10.100;2023-04-15T16:05:08;13.20;99.90
4295;DHT22;2161;53.634;10.100;2023-04-15T16:07:33;13.20;99.90
4295;DHT22;2161;53.634;10.100;2023-04-15T16:09:59;13.20;99.90
4295;DHT22;2161;53.634;10.100;2023-04-15T16:12:24;13.20;99.90